Terminal Aerodrome Forecast
Issued by NWS

Home | Current Version | Previous Version | Text Only | Print | Product List | Glossary On
Versions: 1 2 3 4 5 6 7 8 9 10 11 12 13
000
FTUS46 KPDT 261720
TAFPSC
TAF
KPSC 261720Z 2618/2718 VRB05KT P6SM BKN140
     FM270000 VRB05KT P6SM BKN100
     FM270600 VRB04KT P6SM BKN080
     FM271600 VRB05KT P6SM FEW070=

USA.gov is the U.S. government's official web portal to all federal, state and local government web resources and services.